sensor_id;sensor_type;location;lat;lon;timestamp;pressure;altitude;pressure_sealevel;temperature;humidity
56514;BME280;62152;52.078;8.414;2023-03-01T00:00:24;101610.22;;;15.98;56.12
56514;BME280;62152;52.078;8.414;2023-03-01T00:04:27;101598.47;;;15.97;55.89
56514;BME280;62152;52.078;8.414;2023-03-01T00:08:28;101599.59;;;15.96;56.14
56514;BME280;62152;52.078;8.414;2023-03-01T00:12:29;101606.69;;;15.97;56.01
56514;BME280;62152;52.078;8.414;2023-03-01T00:16:33;101607.00;;;15.96;55.83
56514;BME280;62152;52.078;8.414;2023-03-01T00:20:36;101605.06;;;15.96;56.05
56514;BME280;62152;52.078;8.414;2023-03-01T00:24:36;101606.22;;;15.95;56.32
56514;BME280;62152;52.078;8.414;2023-03-01T00:28:37;101611.34;;;15.97;55.94
56514;BME280;62152;52.078;8.414;2023-03-01T00:32:38;101608.94;;;15.95;56.02
56514;BME280;62152;52.078;8.414;2023-03-01T00:36:40;101614.41;;;15.95;55.81
56514;BME280;62152;52.078;8.414;2023-03-01T00:40:40;101612.47;;;15.96;55.88
56514;BME280;62152;52.078;8.414;2023-03-01T00:44:41;101616.03;;;15.96;55.92
56514;BME280;62152;52.078;8.414;2023-03-01T00:48:42;101616.03;;;15.96;55.88
56514;BME280;62152;52.078;8.414;2023-03-01T00:52:44;101600.72;;;15.95;55.99
56514;BME280;62152;52.078;8.414;2023-03-01T00:56:45;101603.47;;;15.95;56.02
56514;BME280;62152;52.078;8.414;2023-03-01T01:00:46;101601.53;;;15.96;56.08
56514;BME280;62152;52.078;8.414;2023-03-01T01:04:47;101608.94;;;15.95;55.96
56514;BME280;62152;52.078;8.414;2023-03-01T01:08:50;101605.06;;;15.96;55.89
56514;BME280;62152;52.078;8.414;2023-03-01T01:12:51;101604.59;;;15.94;55.99
56514;BME280;62152;52.078;8.414;2023-03-01T01:16:52;101598.00;;;15.95;55.87
56514;BME280;62152;52.078;8.414;2023-03-01T01:20:53;101597.19;;;15.95;56.12
56514;BME280;62152;52.078;8.414;2023-03-01T01:24:55;101581.09;;;15.93;56.20
56514;BME280;62152;52.078;8.414;2023-03-01T01:28:56;101582.72;;;15.94;55.95
56514;BME280;62152;52.078;8.414;2023-03-01T01:32:58;101573.69;;;15.94;56.30
56514;BME280;62152;52.078;8.414;2023-03-01T01:36:59;101562.75;;;15.94;56.23
56514;BME280;62152;52.078;8.414;2023-03-01T01:41:01;101564.69;;;15.93;55.89
56514;BME280;62152;52.078;8.414;2023-03-01T01:45:32;101565.47;;;15.94;56.30
56514;BME280;62152;52.078;8.414;2023-03-01T01:49:38;101567.09;;;15.95;56.22
56514;BME280;62152;52.078;8.414;2023-03-01T01:53:45;101563.56;;;15.94;56.23
56514;BME280;62152;52.078;8.414;2023-03-01T01:57:53;101549.88;;;15.94;56.06
56514;BME280;62152;52.078;8.414;2023-03-01T02:01:56;101554.88;;;15.92;56.21
56514;BME280;62152;52.078;8.414;2023-03-01T02:06:03;101559.22;;;15.93;56.24
56514;BME280;62152;52.078;8.414;2023-03-01T02:10:07;101549.88;;;15.94;56.01
56514;BME280;62152;52.078;8.414;2023-03-01T02:14:10;101541.19;;;15.92;56.31
56514;BME280;62152;52.078;8.414;2023-03-01T02:18:16;101548.25;;;15.93;56.15
56514;BME280;62152;52.078;8.414;2023-03-01T02:22:22;101546.66;;;15.92;56.17
56514;BME280;62152;52.078;8.414;2023-03-01T02:26:34;101541.19;;;15.92;56.18
56514;BME280;62152;52.078;8.414;2023-03-01T02:30:42;101541.19;;;15.92;56.00
56514;BME280;62152;52.078;8.414;2023-03-01T02:34:44;101543.91;;;15.92;56.24
56514;BME280;62152;52.078;8.414;2023-03-01T02:38:45;101540.34;;;15.92;56.40
56514;BME280;62152;52.078;8.414;2023-03-01T02:42:50;101552.13;;;15.92;56.14
56514;BME280;62152;52.078;8.414;2023-03-01T02:46:56;101545.03;;;15.91;56.11
56514;BME280;62152;52.078;8.414;2023-03-01T02:51:07;101542.28;;;15.91;55.93
56514;BME280;62152;52.078;8.414;2023-03-01T02:55:14;101538.75;;;15.91;56.33
56514;BME280;62152;52.078;8.414;2023-03-01T02:59:17;101546.66;;;15.92;56.17
56514;BME280;62152;52.078;8.414;2023-03-01T03:03:21;101543.91;;;15.92;55.96
56514;BME280;62152;52.078;8.414;2023-03-01T03:07:22;101531.66;;;15.90;56.45
56514;BME280;62152;52.078;8.414;2023-03-01T03:11:23;101523.13;;;15.91;56.39
56514;BME280;62152;52.078;8.414;2023-03-01T03:15:26;101519.13;;;15.89;56.08
56514;BME280;62152;52.078;8.414;2023-03-01T03:19:28;101518.78;;;15.90;56.18
56514;BME280;62152;52.078;8.414;2023-03-01T03:23:29;101521.53;;;15.90;56.25
56514;BME280;62152;52.078;8.414;2023-03-01T03:27:29;101511.38;;;15.91;56.03
56514;BME280;62152;52.078;8.414;2023-03-01T03:31:30;101505.09;;;15.90;56.10
56514;BME280;62152;52.078;8.414;2023-03-01T03:35:39;101509.78;;;15.90;56.24
56514;BME280;62152;52.078;8.414;2023-03-01T03:39:40;101514.44;;;15.89;56.08
56514;BME280;62152;52.078;8.414;2023-03-01T03:43:42;101511.72;;;15.89;56.27
56514;BME280;62152;52.078;8.414;2023-03-01T03:47:44;101507.38;;;15.88;56.44
56514;BME280;62152;52.078;8.414;2023-03-01T03:51:46;101504.31;;;15.90;56.35
56514;BME280;62152;52.078;8.414;2023-03-01T03:55:47;101498.03;;;15.89;56.54
56514;BME280;62152;52.078;8.414;2023-03-01T03:59:47;101486.28;;;15.89;56.04
56514;BME280;62152;52.078;8.414;2023-03-01T04:03:48;101484.34;;;15.89;56.33
56514;BME280;62152;52.078;8.414;2023-03-01T04:07:50;101478.56;;;15.91;55.87
56514;BME280;62152;52.078;8.414;2023-03-01T04:11:51;101476.13;;;15.89;56.58
56514;BME280;62152;52.078;8.414;2023-03-01T04:15:53;101481.59;;;15.89;56.51
56514;BME280;62152;52.078;8.414;2023-03-01T04:19:54;101480.00;;;15.88;56.42
56514;BME280;62152;52.078;8.414;2023-03-01T04:23:56;101471.78;;;15.88;56.40
56514;BME280;62152;52.078;8.414;2023-03-01T04:27:56;101471.31;;;15.86;56.16
56514;BME280;62152;52.078;8.414;2023-03-01T04:31:57;101474.88;;;15.86;56.46
56514;BME280;62152;52.078;8.414;2023-03-01T04:35:58;101478.41;;;15.87;55.98
56514;BME280;62152;52.078;8.414;2023-03-01T04:40:00;101470.19;;;15.87;56.44
56514;BME280;62152;52.078;8.414;2023-03-01T04:44:01;101477.59;;;15.86;56.42
56514;BME280;62152;52.078;8.414;2023-03-01T04:48:03;101472.94;;;15.87;56.22
56514;BME280;62152;52.078;8.414;2023-03-01T04:52:04;101474.88;;;15.86;56.15
56514;BME280;62152;52.078;8.414;2023-03-01T04:56:07;101480.81;;;15.89;56.51
56514;BME280;62152;52.078;8.414;2023-03-01T05:00:10;101483.03;;;15.78;51.31
56514;BME280;62152;52.078;8.414;2023-03-01T05:04:11;101476.50;;;15.48;53.97
56514;BME280;62152;52.078;8.414;2023-03-01T05:08:13;101479.63;;;15.64;54.95
56514;BME280;62152;52.078;8.414;2023-03-01T05:12:15;101477.56;;;15.69;54.52
56514;BME280;62152;52.078;8.414;2023-03-01T05:16:16;101480.28;;;15.78;54.95
56514;BME280;62152;52.078;8.414;2023-03-01T05:20:17;101470.81;;;15.84;53.10
56514;BME280;62152;52.078;8.414;2023-03-01T05:24:18;101466.94;;;15.85;53.28
56514;BME280;62152;52.078;8.414;2023-03-01T05:28:20;101468.72;;;15.81;54.01
56514;BME280;62152;52.078;8.414;2023-03-01T05:32:21;101462.78;;;15.79;53.83
56514;BME280;62152;52.078;8.414;2023-03-01T05:36:21;101463.06;;;15.77;53.95
56514;BME280;62152;52.078;8.414;2023-03-01T05:40:23;101469.34;;;15.78;54.55
56514;BME280;62152;52.078;8.414;2023-03-01T05:44:26;101469.34;;;15.78;54.47
56514;BME280;62152;52.078;8.414;2023-03-01T05:48:28;101468.53;;;15.77;54.58
56514;BME280;62152;52.078;8.414;2023-03-01T05:52:29;101475.16;;;15.76;54.18
56514;BME280;62152;52.078;8.414;2023-03-01T05:56:32;101474.81;;;15.78;54.55
56514;BME280;62152;52.078;8.414;2023-03-01T06:00:34;101468.88;;;15.76;54.32
56514;BME280;62152;52.078;8.414;2023-03-01T06:04:34;101475.66;;;15.78;54.56
56514;BME280;62152;52.078;8.414;2023-03-01T06:08:35;101467.44;;;15.78;54.91
56514;BME280;62152;52.078;8.414;2023-03-01T06:12:38;101472.41;;;15.76;54.51
56514;BME280;62152;52.078;8.414;2023-03-01T06:16:40;101477.09;;;15.76;54.65
56514;BME280;62152;52.078;8.414;2023-03-01T06:20:41;101469.69;;;15.76;54.86
56514;BME280;62152;52.078;8.414;2023-03-01T06:24:41;101485.28;;;15.76;54.34
56514;BME280;62152;52.078;8.414;2023-03-01T06:28:42;101484.16;;;15.77;54.77
56514;BME280;62152;52.078;8.414;2023-03-01T06:32:44;101472.41;;;15.76;54.94
56514;BME280;62152;52.078;8.414;2023-03-01T06:36:46;101477.56;;;15.78;54.82
56514;BME280;62152;52.078;8.414;2023-03-01T06:40:52;101472.09;;;15.78;54.93
56514;BME280;62152;52.078;8.414;2023-03-01T06:44:53;101470.19;;;15.78;54.95
56514;BME280;62152;52.078;8.414;2023-03-01T06:48:55;101474.81;;;15.78;54.77
56514;BME280;62152;52.078;8.414;2023-03-01T06:52:56;101471.78;;;15.79;54.94
56514;BME280;62152;52.078;8.414;2023-03-01T06:56:57;101477.25;;;15.79;54.74
56514;BME280;62152;52.078;8.414;2023-03-01T07:00:59;101471.00;;;15.79;54.74
56514;BME280;62152;52.078;8.414;2023-03-01T07:05:01;101458.13;;;15.79;54.94
56514;BME280;62152;52.078;8.414;2023-03-01T07:09:02;101463.25;;;15.81;55.11
56514;BME280;62152;52.078;8.414;2023-03-01T07:13:03;101455.84;;;15.81;54.82
56514;BME280;62152;52.078;8.414;2023-03-01T07:17:03;101459.41;;;15.82;55.23
56514;BME280;62152;52.078;8.414;2023-03-01T07:21:06;101451.19;;;15.82;54.81
56514;BME280;62152;52.078;8.414;2023-03-01T07:25:08;101453.91;;;15.82;54.80
56514;BME280;62152;52.078;8.414;2023-03-01T07:29:10;101453.13;;;15.81;55.20
56514;BME280;62152;52.078;8.414;2023-03-01T07:33:10;101439.44;;;15.81;55.22
56514;BME280;62152;52.078;8.414;2023-03-01T07:37:12;101434.78;;;15.82;54.76
56514;BME280;62152;52.078;8.414;2023-03-01T07:41:13;101440.25;;;15.82;55.29
56514;BME280;62152;52.078;8.414;2023-03-01T07:45:14;101441.84;;;15.83;55.32
56514;BME280;62152;52.078;8.414;2023-03-01T07:49:15;101441.84;;;15.83;55.19
56514;BME280;62152;52.078;8.414;2023-03-01T07:53:17;101439.91;;;15.83;55.25
56514;BME280;62152;52.078;8.414;2023-03-01T07:57:17;101443.47;;;15.84;55.17
56514;BME280;62152;52.078;8.414;2023-03-01T08:01:20;101452.00;;;15.82;55.21
56514;BME280;62152;52.078;8.414;2023-03-01T08:05:21;101450.84;;;15.83;55.31
56514;BME280;62152;52.078;8.414;2023-03-01T08:09:23;101451.66;;;15.84;54.88
56514;BME280;62152;52.078;8.414;2023-03-01T08:13:23;101445.38;;;15.83;54.92
56514;BME280;62152;52.078;8.414;2023-03-01T08:17:24;101448.94;;;15.84;54.80
56514;BME280;62152;52.078;8.414;2023-03-01T08:21:25;101442.31;;;15.85;55.02
56514;BME280;62152;52.078;8.414;2023-03-01T08:25:27;101442.31;;;15.85;54.94
56514;BME280;62152;52.078;8.414;2023-03-01T08:29:27;101447.00;;;15.84;55.28
56514;BME280;62152;52.078;8.414;2023-03-01T08:33:29;101436.84;;;15.85;55.01
56514;BME280;62152;52.078;8.414;2023-03-01T08:37:29;101436.84;;;15.85;55.25
56514;BME280;62152;52.078;8.414;2023-03-01T08:41:31;101435.25;;;15.84;55.27
56514;BME280;62152;52.078;8.414;2023-03-01T08:45:35;101430.28;;;15.86;55.13
56514;BME280;62152;52.078;8.414;2023-03-01T08:49:36;101422.06;;;15.86;55.19
56514;BME280;62152;52.078;8.414;2023-03-01T08:53:36;101433.03;;;15.86;55.26
56514;BME280;62152;52.078;8.414;2023-03-01T08:57:38;101431.09;;;15.86;54.72
56514;BME280;62152;52.078;8.414;2023-03-01T09:01:40;101432.22;;;15.85;55.08
56514;BME280;62152;52.078;8.414;2023-03-01T09:05:41;101426.41;;;15.87;55.06
56514;BME280;62152;52.078;8.414;2023-03-01T09:09:42;101422.06;;;15.86;55.14
56514;BME280;62152;52.078;8.414;2023-03-01T09:13:44;101422.06;;;15.86;55.04
56514;BME280;62152;52.078;8.414;2023-03-01T09:17:45;101418.22;;;15.87;55.30
56514;BME280;62152;52.078;8.414;2023-03-01T09:21:46;101414.66;;;15.86;54.99
56514;BME280;62152;52.078;8.414;2023-03-01T09:25:46;101413.53;;;15.88;55.23
56514;BME280;62152;52.078;8.414;2023-03-01T09:29:49;101412.75;;;15.87;55.02
56514;BME280;62152;52.078;8.414;2023-03-01T09:33:52;101408.06;;;15.88;55.11
56514;BME280;62152;52.078;8.414;2023-03-01T09:37:53;101401.78;;;15.87;55.56
56514;BME280;62152;52.078;8.414;2023-03-01T09:41:58;101397.94;;;15.88;55.05
56514;BME280;62152;52.078;8.414;2023-03-01T09:46:08;101385.38;;;15.87;55.34
56514;BME280;62152;52.078;8.414;2023-03-01T09:50:13;101390.84;;;15.87;55.50
56514;BME280;62152;52.078;8.414;2023-03-01T09:54:14;101386.97;;;15.88;55.39
56514;BME280;62152;52.078;8.414;2023-03-01T09:58:35;101382.63;;;15.87;55.45
56514;BME280;62152;52.078;8.414;2023-03-01T10:02:45;101383.44;;;15.88;55.24
56514;BME280;62152;52.078;8.414;2023-03-01T10:06:55;101381.50;;;15.88;55.19
56514;BME280;62152;52.078;8.414;2023-03-01T10:10:58;101384.25;;;15.88;55.40
56514;BME280;62152;52.078;8.414;2023-03-01T10:15:05;101379.56;;;15.89;54.94
56514;BME280;62152;52.078;8.414;2023-03-01T10:19:14;101369.75;;;15.88;54.98
56514;BME280;62152;52.078;8.414;2023-03-01T10:23:15;101376.03;;;15.88;55.24
56514;BME280;62152;52.078;8.414;2023-03-01T10:27:22;101367.50;;;15.90;55.18
56514;BME280;62152;52.078;8.414;2023-03-01T10:31:36;101364.75;;;15.90;54.98
56514;BME280;62152;52.078;8.414;2023-03-01T10:35:39;101360.44;;;15.89;55.24
56514;BME280;62152;52.078;8.414;2023-03-01T10:39:58;101361.22;;;15.89;55.30
56514;BME280;62152;52.078;8.414;2023-03-01T10:44:00;101360.44;;;15.89;55.06
56514;BME280;62152;52.078;8.414;2023-03-01T10:48:13;101367.50;;;15.90;55.14
56514;BME280;62152;52.078;8.414;2023-03-01T10:52:20;101373.78;;;15.90;55.38
56514;BME280;62152;52.078;8.414;2023-03-01T10:56:22;101362.84;;;15.90;55.06
56514;BME280;62152;52.078;8.414;2023-03-01T11:00:24;101369.09;;;15.91;55.15
56514;BME280;62152;52.078;8.414;2023-03-01T11:04:25;101363.63;;;15.91;55.51
56514;BME280;62152;52.078;8.414;2023-03-01T11:08:49;101362.03;;;15.90;54.97
56514;BME280;62152;52.078;8.414;2023-03-01T11:12:51;101353.50;;;15.91;55.20
56514;BME280;62152;52.078;8.414;2023-03-01T11:17:00;101353.19;;;15.93;55.17
56514;BME280;62152;52.078;8.414;2023-03-01T11:21:03;101345.28;;;15.91;55.08
56514;BME280;62152;52.078;8.414;2023-03-01T11:25:12;101344.19;;;15.92;55.43
56514;BME280;62152;52.078;8.414;2023-03-01T11:29:26;101353.19;;;15.93;55.24
56514;BME280;62152;52.078;8.414;2023-03-01T11:33:36;101345.00;;;15.93;55.18
56514;BME280;62152;52.078;8.414;2023-03-01T11:37:44;101351.25;;;15.93;55.29
56514;BME280;62152;52.078;8.414;2023-03-01T11:42:02;101348.19;;;15.95;54.91
56514;BME280;62152;52.078;8.414;2023-03-01T11:46:40;101341.91;;;15.94;54.90
56514;BME280;62152;52.078;8.414;2023-03-01T11:50:47;101341.13;;;15.94;55.26
56514;BME280;62152;52.078;8.414;2023-03-01T11:55:03;101339.19;;;15.94;54.93
56514;BME280;62152;52.078;8.414;2023-03-01T12:04:11;101320.03;;;15.94;55.02
56514;BME280;62152;52.078;8.414;2023-03-01T12:08:26;101315.69;;;15.93;55.17
56514;BME280;62152;52.078;8.414;2023-03-01T12:12:42;101313.75;;;15.94;55.07
56514;BME280;62152;52.078;8.414;2023-03-01T12:17:06;101304.41;;;15.95;54.71
56514;BME280;62152;52.078;8.414;2023-03-01T12:21:22;101288.00;;;15.95;55.40
56514;BME280;62152;52.078;8.414;2023-03-01T12:25:34;101287.19;;;15.94;55.31
56514;BME280;62152;52.078;8.414;2023-03-01T12:29:44;101275.13;;;15.95;55.08
56514;BME280;62152;52.078;8.414;2023-03-01T12:33:54;101271.59;;;15.95;55.03
56514;BME280;62152;52.078;8.414;2023-03-01T12:38:10;101268.50;;;15.96;55.22
56514;BME280;62152;52.078;8.414;2023-03-01T12:42:23;101261.09;;;15.97;55.29
56514;BME280;62152;52.078;8.414;2023-03-01T12:46:41;101252.09;;;15.96;54.98
56514;BME280;62152;52.078;8.414;2023-03-01T12:50:51;101241.16;;;15.96;55.01
56514;BME280;62152;52.078;8.414;2023-03-01T12:54:56;101247.44;;;15.97;54.91
56514;BME280;62152;52.078;8.414;2023-03-01T12:59:06;101245.81;;;15.96;55.23
56514;BME280;62152;52.078;8.414;2023-03-01T13:03:21;101239.22;;;15.97;55.08
56514;BME280;62152;52.078;8.414;2023-03-01T13:07:34;101234.88;;;15.96;55.04
56514;BME280;62152;52.078;8.414;2023-03-01T13:11:36;101236.47;;;15.97;55.14
56514;BME280;62152;52.078;8.414;2023-03-01T13:15:37;101230.66;;;15.98;54.96
56514;BME280;62152;52.078;8.414;2023-03-01T13:19:38;101218.13;;;15.97;55.32
56514;BME280;62152;52.078;8.414;2023-03-01T13:23:40;101216.19;;;15.98;55.31
56514;BME280;62152;52.078;8.414;2023-03-01T13:27:41;101211.53;;;15.98;55.26
56514;BME280;62152;52.078;8.414;2023-03-01T13:31:57;101214.59;;;15.97;55.37
56514;BME280;62152;52.078;8.414;2023-03-01T13:35:58;101214.59;;;15.97;55.14
56514;BME280;62152;52.078;8.414;2023-03-01T13:40:56;101197.38;;;15.96;55.22
56514;BME280;62152;52.078;8.414;2023-03-01T13:44:33;101193.50;;;15.97;55.12
56514;BME280;62152;52.078;8.414;2023-03-01T13:48:35;101184.97;;;15.99;55.18
56514;BME280;62152;52.078;8.414;2023-03-01T13:52:39;101184.16;;;15.98;55.22
56514;BME280;62152;52.078;8.414;2023-03-01T13:56:43;101189.31;;;16.00;55.09
56514;BME280;62152;52.078;8.414;2023-03-01T14:00:44;101185.78;;;15.99;55.02
56514;BME280;62152;52.078;8.414;2023-03-01T14:04:56;101185.78;;;15.99;55.21
56514;BME280;62152;52.078;8.414;2023-03-01T14:09:05;101178.69;;;15.98;55.60
56514;BME280;62152;52.078;8.414;2023-03-01T14:13:28;101173.22;;;15.98;55.22
56514;BME280;62152;52.078;8.414;2023-03-01T14:17:52;101179.47;;;15.99;55.23
56514;BME280;62152;52.078;8.414;2023-03-01T14:22:05;101172.91;;;16.00;55.22
56514;BME280;62152;52.078;8.414;2023-03-01T14:26:11;101181.13;;;16.00;55.39
56514;BME280;62152;52.078;8.414;2023-03-01T14:30:19;101171.28;;;15.99;55.63
56514;BME280;62152;52.078;8.414;2023-03-01T14:34:22;101156.78;;;15.98;55.62
56514;BME280;62152;52.078;8.414;2023-03-01T14:38:30;101148.28;;;16.00;55.23
56514;BME280;62152;52.078;8.414;2023-03-01T14:42:36;101156.78;;;15.98;55.47
56514;BME280;62152;52.078;8.414;2023-03-01T14:46:40;101143.91;;;15.99;55.62
56514;BME280;62152;52.078;8.414;2023-03-01T14:50:44;101143.13;;;15.98;55.30
56514;BME280;62152;52.078;8.414;2023-03-01T14:54:48;101131.88;;;16.00;55.29
56514;BME280;62152;52.078;8.414;2023-03-01T14:58:59;101134.25;;;16.01;55.53
56514;BME280;62152;52.078;8.414;2023-03-01T15:03:07;101133.47;;;16.01;55.52
56514;BME280;62152;52.078;8.414;2023-03-01T15:07:12;101127.19;;;16.00;55.37
56514;BME280;62152;52.078;8.414;2023-03-01T15:11:20;101122.53;;;16.01;55.70
56514;BME280;62152;52.078;8.414;2023-03-01T15:15:34;101116.25;;;16.00;55.76
56514;BME280;62152;52.078;8.414;2023-03-01T15:19:36;101108.84;;;16.01;55.80
56514;BME280;62152;52.078;8.414;2023-03-01T15:23:38;101099.84;;;16.00;55.78
56514;BME280;62152;52.078;8.414;2023-03-01T15:27:45;101104.28;;;16.13;55.49
56514;BME280;62152;52.078;8.414;2023-03-01T15:31:55;101100.75;;;16.34;51.11
56514;BME280;62152;52.078;8.414;2023-03-01T15:35:58;101102.16;;;16.40;49.97
56514;BME280;62152;52.078;8.414;2023-03-01T15:39:59;101108.72;;;16.68;49.23
56514;BME280;62152;52.078;8.414;2023-03-01T15:44:14;101096.47;;;16.75;49.14
56514;BME280;62152;52.078;8.414;2023-03-01T15:48:19;101094.19;;;16.77;48.55
56514;BME280;62152;52.078;8.414;2023-03-01T15:52:24;101092.09;;;16.74;48.84
56514;BME280;62152;52.078;8.414;2023-03-01T15:56:27;101084.94;;;16.81;47.61
56514;BME280;62152;52.078;8.414;2023-03-01T16:00:28;101093.31;;;16.85;48.06
56514;BME280;62152;52.078;8.414;2023-03-01T16:04:28;101093.47;;;16.88;48.92
56514;BME280;62152;52.078;8.414;2023-03-01T16:08:30;101090.72;;;16.88;48.92
56514;BME280;62152;52.078;8.414;2023-03-01T16:12:31;101094.44;;;16.84;49.92
56514;BME280;62152;52.078;8.414;2023-03-01T16:16:32;101086.84;;;16.89;49.48
56514;BME280;62152;52.078;8.414;2023-03-01T16:20:32;101078.13;;;16.87;49.93
56514;BME280;62152;52.078;8.414;2023-03-01T16:24:35;101080.88;;;16.87;50.48
56514;BME280;62152;52.078;8.414;2023-03-01T16:28:35;101081.66;;;16.88;50.75
56514;BME280;62152;52.078;8.414;2023-03-01T16:32:37;101075.38;;;16.87;51.12
56514;BME280;62152;52.078;8.414;2023-03-01T16:36:38;101079.75;;;16.88;50.71
56514;BME280;62152;52.078;8.414;2023-03-01T16:40:47;101072.34;;;16.89;51.01
56514;BME280;62152;52.078;8.414;2023-03-01T16:44:48;101072.78;;;16.91;52.23
56514;BME280;62152;52.078;8.414;2023-03-01T16:48:50;101072.34;;;16.89;52.69
56514;BME280;62152;52.078;8.414;2023-03-01T16:52:51;101080.00;;;16.95;52.45
56514;BME280;62152;52.078;8.414;2023-03-01T16:56:53;101075.97;;;16.93;52.58
56514;BME280;62152;52.078;8.414;2023-03-01T17:00:55;101081.47;;;16.93;52.88
56514;BME280;62152;52.078;8.414;2023-03-01T17:04:56;101092.44;;;16.93;53.20
56514;BME280;62152;52.078;8.414;2023-03-01T17:08:56;101079.25;;;16.65;53.65
56514;BME280;62152;52.078;8.414;2023-03-01T17:12:58;101086.03;;;16.47;54.33
56514;BME280;62152;52.078;8.414;2023-03-01T17:16:59;101094.63;;;16.37;54.53
56514;BME280;62152;52.078;8.414;2023-03-01T17:21:00;101091.75;;;16.33;54.35
56514;BME280;62152;52.078;8.414;2023-03-01T17:25:01;101099.28;;;16.36;53.97
56514;BME280;62152;52.078;8.414;2023-03-01T17:29:03;101101.41;;;16.31;54.04
56514;BME280;62152;52.078;8.414;2023-03-01T17:33:04;101106.44;;;16.29;54.22
56514;BME280;62152;52.078;8.414;2023-03-01T17:37:04;101108.22;;;16.25;54.30
56514;BME280;62152;52.078;8.414;2023-03-01T17:41:05;101117.56;;;16.24;54.80
56514;BME280;62152;52.078;8.414;2023-03-01T17:45:08;101115.63;;;16.24;54.83
56514;BME280;62152;52.078;8.414;2023-03-01T17:49:09;101110.03;;;16.21;54.66
56514;BME280;62152;52.078;8.414;2023-03-01T17:53:10;101111.75;;;16.25;54.85
56514;BME280;62152;52.078;8.414;2023-03-01T17:57:10;101112.28;;;16.19;54.88
56514;BME280;62152;52.078;8.414;2023-03-01T18:01:14;101120.00;;;16.17;54.73
56514;BME280;62152;52.078;8.414;2023-03-01T18:05:15;101124.16;;;16.23;52.69
56514;BME280;62152;52.078;8.414;2023-03-01T18:09:16;101139.16;;;16.46;49.32
56514;BME280;62152;52.078;8.414;2023-03-01T18:13:16;101119.41;;;16.61;47.90
56514;BME280;62152;52.078;8.414;2023-03-01T18:17:18;101113.91;;;16.70;47.76
56514;BME280;62152;52.078;8.414;2023-03-01T18:21:19;101115.97;;;16.73;47.93
56514;BME280;62152;52.078;8.414;2023-03-01T18:25:20;101118.84;;;16.77;47.89
56514;BME280;62152;52.078;8.414;2023-03-01T18:29:20;101125.97;;;16.69;49.07
56514;BME280;62152;52.078;8.414;2023-03-01T18:33:23;101118.00;;;16.55;50.46
56514;BME280;62152;52.078;8.414;2023-03-01T18:37:24;101113.19;;;16.52;50.64
56514;BME280;62152;52.078;8.414;2023-03-01T18:41:27;101114.78;;;16.53;51.28
56514;BME280;62152;52.078;8.414;2023-03-01T18:45:29;101119.16;;;16.54;51.36
56514;BME280;62152;52.078;8.414;2023-03-01T18:49:31;101107.84;;;16.56;51.59
56514;BME280;62152;52.078;8.414;2023-03-01T18:53:32;101101.88;;;16.54;52.39
56514;BME280;62152;52.078;8.414;2023-03-01T18:57:33;101103.53;;;16.55;52.84
56514;BME280;62152;52.078;8.414;2023-03-01T19:01:33;101104.78;;;16.57;52.64
56514;BME280;62152;52.078;8.414;2023-03-01T19:05:39;101106.72;;;16.57;53.01
56514;BME280;62152;52.078;8.414;2023-03-01T19:09:40;101107.53;;;16.57;52.94
56514;BME280;62152;52.078;8.414;2023-03-01T19:13:41;101111.06;;;16.58;53.04
56514;BME280;62152;52.078;8.414;2023-03-01T19:17:42;101115.88;;;16.61;53.33
56514;BME280;62152;52.078;8.414;2023-03-01T19:21:44;101121.38;;;16.61;53.57
56514;BME280;62152;52.078;8.414;2023-03-01T19:25:45;101115.53;;;16.62;53.77
56514;BME280;62152;52.078;8.414;2023-03-01T19:29:45;101103.56;;;16.76;52.58
56514;BME280;62152;52.078;8.414;2023-03-01T19:33:46;101103.31;;;16.81;52.90
56514;BME280;62152;52.078;8.414;2023-03-01T19:37:48;101102.19;;;16.61;53.09
56514;BME280;62152;52.078;8.414;2023-03-01T19:41:49;101107.72;;;16.52;53.63
56514;BME280;62152;52.078;8.414;2023-03-01T19:45:50;101114.19;;;16.48;53.56
56514;BME280;62152;52.078;8.414;2023-03-01T19:49:51;101108.91;;;16.42;53.58
56514;BME280;62152;52.078;8.414;2023-03-01T19:53:53;101121.00;;;16.41;53.78
56514;BME280;62152;52.078;8.414;2023-03-01T19:57:54;101117.25;;;16.67;52.91
56514;BME280;62152;52.078;8.414;2023-03-01T20:01:56;101112.63;;;16.88;52.24
56514;BME280;62152;52.078;8.414;2023-03-01T20:05:57;101107.94;;;16.89;52.75
56514;BME280;62152;52.078;8.414;2023-03-01T20:09:59;101111.16;;;16.91;52.48
56514;BME280;62152;52.078;8.414;2023-03-01T20:14:00;101106.13;;;16.93;52.89
56514;BME280;62152;52.078;8.414;2023-03-01T20:18:00;101114.00;;;16.94;52.76
56514;BME280;62152;52.078;8.414;2023-03-01T20:22:01;101108.31;;;17.00;52.55
56514;BME280;62152;52.078;8.414;2023-03-01T20:26:05;101105.59;;;17.00;52.75
56514;BME280;62152;52.078;8.414;2023-03-01T20:30:07;101104.13;;;17.02;52.87
56514;BME280;62152;52.078;8.414;2023-03-01T20:34:08;101110.72;;;17.01;53.43
56514;BME280;62152;52.078;8.414;2023-03-01T20:38:09;101103.00;;;17.03;53.25
56514;BME280;62152;52.078;8.414;2023-03-01T20:42:11;101106.19;;;17.05;53.47
56514;BME280;62152;52.078;8.414;2023-03-01T20:46:12;101106.97;;;17.06;53.13
56514;BME280;62152;52.078;8.414;2023-03-01T20:50:13;101108.59;;;17.07;53.34
56514;BME280;62152;52.078;8.414;2023-03-01T20:54:13;101111.47;;;17.10;52.82
56514;BME280;62152;52.078;8.414;2023-03-01T20:58:15;101109.53;;;17.11;52.59
56514;BME280;62152;52.078;8.414;2023-03-01T21:02:16;101111.81;;;17.09;52.41
56514;BME280;62152;52.078;8.414;2023-03-01T21:06:17;101113.53;;;17.13;52.45
56514;BME280;62152;52.078;8.414;2023-03-01T21:10:17;101114.31;;;17.14;52.27
56514;BME280;62152;52.078;8.414;2023-03-01T21:14:19;101105.50;;;17.08;52.71
56514;BME280;62152;52.078;8.414;2023-03-01T21:18:20;101105.38;;;17.05;52.53